sensor_id;sensor_type;location;lat;lon;timestamp;P1;durP1;ratioP1;P2;durP2;ratioP2
17488;SDS011;8861;52.644;4.734;2022-11-23T00:00:04;35.97;;;20.83;;
17488;SDS011;8861;52.644;4.734;2022-11-23T00:02:32;37.27;;;20.53;;
17488;SDS011;8861;52.644;4.734;2022-11-23T00:04:59;40.03;;;22.10;;
17488;SDS011;8861;52.644;4.734;2022-11-23T00:07:26;39.27;;;21.60;;
17488;SDS011;8861;52.644;4.734;2022-11-23T00:09:54;35.67;;;20.13;;
17488;SDS011;8861;52.644;4.734;2022-11-23T00:12:23;36.90;;;19.80;;
17488;SDS011;8861;52.644;4.734;2022-11-23T00:14:50;42.47;;;21.87;;
17488;SDS011;8861;52.644;4.734;2022-11-23T00:17:20;34.03;;;19.60;;
17488;SDS011;8861;52.644;4.734;2022-11-23T00:19:48;39.47;;;22.17;;
17488;SDS011;8861;52.644;4.734;2022-11-23T00:22:15;36.83;;;20.33;;
17488;SDS011;8861;52.644;4.734;2022-11-23T00:24:42;37.50;;;20.63;;
17488;SDS011;8861;52.644;4.734;2022-11-23T00:27:11;38.53;;;20.17;;
17488;SDS011;8861;52.644;4.734;2022-11-23T00:29:38;37.43;;;20.93;;
17488;SDS011;8861;52.644;4.734;2022-11-23T00:32:04;43.80;;;23.07;;
17488;SDS011;8861;52.644;4.734;2022-11-23T00:34:31;44.37;;;23.83;;
17488;SDS011;8861;52.644;4.734;2022-11-23T00:36:58;39.03;;;21.53;;
17488;SDS011;8861;52.644;4.734;2022-11-23T00:39:25;40.03;;;22.00;;
17488;SDS011;8861;52.644;4.734;2022-11-23T00:41:52;33.20;;;19.97;;
17488;SDS011;8861;52.644;4.734;2022-11-23T00:44:20;37.00;;;21.17;;
17488;SDS011;8861;52.644;4.734;2022-11-23T00:46:47;35.40;;;19.70;;
17488;SDS011;8861;52.644;4.734;2022-11-23T00:49:14;36.47;;;20.53;;
17488;SDS011;8861;52.644;4.734;2022-11-23T00:51:41;42.50;;;22.27;;
17488;SDS011;8861;52.644;4.734;2022-11-23T00:54:08;42.07;;;22.13;;
17488;SDS011;8861;52.644;4.734;2022-11-23T00:56:35;41.67;;;21.77;;
17488;SDS011;8861;52.644;4.734;2022-11-23T00:59:02;42.80;;;21.83;;
17488;SDS011;8861;52.644;4.734;2022-11-23T01:01:31;36.77;;;19.83;;
17488;SDS011;8861;52.644;4.734;2022-11-23T01:03:59;41.30;;;21.20;;
17488;SDS011;8861;52.644;4.734;2022-11-23T01:06:27;35.93;;;20.23;;
17488;SDS011;8861;52.644;4.734;2022-11-23T01:08:57;39.63;;;21.00;;
17488;SDS011;8861;52.644;4.734;2022-11-23T01:11:27;35.03;;;20.43;;
17488;SDS011;8861;52.644;4.734;2022-11-23T01:13:55;39.33;;;21.27;;
17488;SDS011;8861;52.644;4.734;2022-11-23T01:16:23;34.30;;;19.50;;
17488;SDS011;8861;52.644;4.734;2022-11-23T01:18:52;40.83;;;19.90;;
17488;SDS011;8861;52.644;4.734;2022-11-23T01:21:19;36.37;;;19.13;;
17488;SDS011;8861;52.644;4.734;2022-11-23T01:23:46;37.37;;;19.97;;
17488;SDS011;8861;52.644;4.734;2022-11-23T01:26:13;44.97;;;22.70;;
17488;SDS011;8861;52.644;4.734;2022-11-23T01:28:40;39.33;;;21.90;;
17488;SDS011;8861;52.644;4.734;2022-11-23T01:31:08;35.50;;;19.40;;
17488;SDS011;8861;52.644;4.734;2022-11-23T01:33:36;38.57;;;20.83;;
17488;SDS011;8861;52.644;4.734;2022-11-23T01:36:09;39.07;;;20.93;;
17488;SDS011;8861;52.644;4.734;2022-11-23T01:38:36;42.57;;;21.43;;
17488;SDS011;8861;52.644;4.734;2022-11-23T01:41:03;43.77;;;21.83;;
17488;SDS011;8861;52.644;4.734;2022-11-23T01:43:31;37.87;;;20.70;;
17488;SDS011;8861;52.644;4.734;2022-11-23T01:45:58;44.57;;;22.50;;
17488;SDS011;8861;52.644;4.734;2022-11-23T01:48:26;34.73;;;20.43;;
17488;SDS011;8861;52.644;4.734;2022-11-23T01:50:56;36.20;;;20.67;;
17488;SDS011;8861;52.644;4.734;2022-11-23T01:53:27;37.60;;;21.07;;
17488;SDS011;8861;52.644;4.734;2022-11-23T01:55:56;37.10;;;20.60;;
17488;SDS011;8861;52.644;4.734;2022-11-23T01:58:25;35.67;;;20.53;;
17488;SDS011;8861;52.644;4.734;2022-11-23T02:00:54;41.80;;;22.83;;
17488;SDS011;8861;52.644;4.734;2022-11-23T02:03:21;35.53;;;21.27;;
17488;SDS011;8861;52.644;4.734;2022-11-23T02:05:49;32.13;;;19.53;;
17488;SDS011;8861;52.644;4.734;2022-11-23T02:08:23;38.53;;;20.77;;
17488;SDS011;8861;52.644;4.734;2022-11-23T02:10:52;35.23;;;20.30;;
17488;SDS011;8861;52.644;4.734;2022-11-23T02:13:20;40.27;;;21.87;;
17488;SDS011;8861;52.644;4.734;2022-11-23T02:15:48;40.83;;;22.63;;
17488;SDS011;8861;52.644;4.734;2022-11-23T02:18:17;45.20;;;22.47;;
17488;SDS011;8861;52.644;4.734;2022-11-23T02:20:46;38.73;;;21.90;;
17488;SDS011;8861;52.644;4.734;2022-11-23T02:23:17;37.63;;;21.93;;
17488;SDS011;8861;52.644;4.734;2022-11-23T02:25:57;46.90;;;24.20;;
17488;SDS011;8861;52.644;4.734;2022-11-23T02:28:28;38.60;;;22.23;;
17488;SDS011;8861;52.644;4.734;2022-11-23T02:30:59;39.47;;;22.37;;
17488;SDS011;8861;52.644;4.734;2022-11-23T02:33:26;45.97;;;25.00;;
17488;SDS011;8861;52.644;4.734;2022-11-23T02:35:54;40.17;;;23.30;;
17488;SDS011;8861;52.644;4.734;2022-11-23T02:38:25;46.10;;;25.10;;
17488;SDS011;8861;52.644;4.734;2022-11-23T02:40:54;48.03;;;25.83;;
17488;SDS011;8861;52.644;4.734;2022-11-23T02:43:22;46.20;;;25.37;;
17488;SDS011;8861;52.644;4.734;2022-11-23T02:45:50;43.93;;;24.90;;
17488;SDS011;8861;52.644;4.734;2022-11-23T02:48:19;55.83;;;27.67;;
17488;SDS011;8861;52.644;4.734;2022-11-23T02:50:46;58.03;;;29.20;;
17488;SDS011;8861;52.644;4.734;2022-11-23T02:53:13;45.93;;;24.57;;
17488;SDS011;8861;52.644;4.734;2022-11-23T02:55:40;51.40;;;27.20;;
17488;SDS011;8861;52.644;4.734;2022-11-23T02:58:07;42.37;;;24.27;;
17488;SDS011;8861;52.644;4.734;2022-11-23T03:00:35;55.57;;;27.30;;
17488;SDS011;8861;52.644;4.734;2022-11-23T03:03:02;42.40;;;25.13;;
17488;SDS011;8861;52.644;4.734;2022-11-23T03:05:29;52.77;;;27.80;;
17488;SDS011;8861;52.644;4.734;2022-11-23T03:07:56;48.93;;;26.40;;
17488;SDS011;8861;52.644;4.734;2022-11-23T03:10:23;41.40;;;25.57;;
17488;SDS011;8861;52.644;4.734;2022-11-23T03:12:52;38.07;;;23.73;;
17488;SDS011;8861;52.644;4.734;2022-11-23T03:15:19;40.10;;;24.53;;
17488;SDS011;8861;52.644;4.734;2022-11-23T03:17:48;44.93;;;27.17;;
17488;SDS011;8861;52.644;4.734;2022-11-23T03:20:15;43.30;;;24.97;;
17488;SDS011;8861;52.644;4.734;2022-11-23T03:22:42;42.57;;;25.60;;
17488;SDS011;8861;52.644;4.734;2022-11-23T03:25:09;45.33;;;26.00;;
17488;SDS011;8861;52.644;4.734;2022-11-23T03:27:36;59.47;;;31.40;;
17488;SDS011;8861;52.644;4.734;2022-11-23T03:30:04;51.03;;;27.63;;
17488;SDS011;8861;52.644;4.734;2022-11-23T03:32:32;45.03;;;26.73;;
17488;SDS011;8861;52.644;4.734;2022-11-23T03:35:00;48.03;;;26.40;;
17488;SDS011;8861;52.644;4.734;2022-11-23T03:37:27;49.00;;;26.07;;
17488;SDS011;8861;52.644;4.734;2022-11-23T03:39:54;43.47;;;25.40;;
17488;SDS011;8861;52.644;4.734;2022-11-23T03:42:21;58.40;;;29.30;;
17488;SDS011;8861;52.644;4.734;2022-11-23T03:44:48;59.10;;;29.70;;
17488;SDS011;8861;52.644;4.734;2022-11-23T03:47:15;43.87;;;24.77;;
17488;SDS011;8861;52.644;4.734;2022-11-23T03:49:41;43.53;;;25.03;;
17488;SDS011;8861;52.644;4.734;2022-11-23T03:52:10;41.37;;;24.90;;
17488;SDS011;8861;52.644;4.734;2022-11-23T03:54:36;37.33;;;22.40;;
17488;SDS011;8861;52.644;4.734;2022-11-23T03:57:03;34.90;;;21.17;;
17488;SDS011;8861;52.644;4.734;2022-11-23T03:59:30;36.37;;;21.20;;
17488;SDS011;8861;52.644;4.734;2022-11-23T04:01:57;36.77;;;21.27;;
17488;SDS011;8861;52.644;4.734;2022-11-23T04:04:24;35.17;;;23.07;;
17488;SDS011;8861;52.644;4.734;2022-11-23T04:06:50;32.43;;;20.60;;
17488;SDS011;8861;52.644;4.734;2022-11-23T04:09:19;48.33;;;26.93;;
17488;SDS011;8861;52.644;4.734;2022-11-23T04:11:46;43.77;;;24.23;;
17488;SDS011;8861;52.644;4.734;2022-11-23T04:14:13;36.70;;;22.67;;
17488;SDS011;8861;52.644;4.734;2022-11-23T04:16:39;48.37;;;26.70;;
17488;SDS011;8861;52.644;4.734;2022-11-23T04:19:06;45.73;;;25.10;;
17488;SDS011;8861;52.644;4.734;2022-11-23T04:21:33;39.10;;;23.60;;
17488;SDS011;8861;52.644;4.734;2022-11-23T04:24:00;44.80;;;25.17;;
17488;SDS011;8861;52.644;4.734;2022-11-23T04:26:28;42.67;;;24.50;;
17488;SDS011;8861;52.644;4.734;2022-11-23T04:28:55;44.57;;;25.37;;
17488;SDS011;8861;52.644;4.734;2022-11-23T04:31:22;42.77;;;24.10;;
17488;SDS011;8861;52.644;4.734;2022-11-23T04:33:49;37.60;;;22.37;;
17488;SDS011;8861;52.644;4.734;2022-11-23T04:36:16;45.57;;;25.60;;
17488;SDS011;8861;52.644;4.734;2022-11-23T04:38:42;36.00;;;22.70;;
17488;SDS011;8861;52.644;4.734;2022-11-23T04:41:09;44.00;;;25.13;;
17488;SDS011;8861;52.644;4.734;2022-11-23T04:43:38;52.43;;;27.93;;
17488;SDS011;8861;52.644;4.734;2022-11-23T04:46:04;52.73;;;28.23;;
17488;SDS011;8861;52.644;4.734;2022-11-23T04:48:31;60.73;;;29.60;;
17488;SDS011;8861;52.644;4.734;2022-11-23T04:50:58;51.13;;;26.87;;
17488;SDS011;8861;52.644;4.734;2022-11-23T04:53:25;44.83;;;26.57;;
17488;SDS011;8861;52.644;4.734;2022-11-23T04:55:52;52.83;;;27.50;;
17488;SDS011;8861;52.644;4.734;2022-11-23T04:58:19;60.43;;;31.00;;
17488;SDS011;8861;52.644;4.734;2022-11-23T05:00:48;58.60;;;29.80;;
17488;SDS011;8861;52.644;4.734;2022-11-23T05:03:15;57.03;;;29.77;;
17488;SDS011;8861;52.644;4.734;2022-11-23T05:05:42;46.13;;;26.57;;
17488;SDS011;8861;52.644;4.734;2022-11-23T05:08:08;39.83;;;25.97;;
17488;SDS011;8861;52.644;4.734;2022-11-23T05:10:35;49.80;;;27.83;;
17488;SDS011;8861;52.644;4.734;2022-11-23T05:13:03;47.83;;;28.40;;
17488;SDS011;8861;52.644;4.734;2022-11-23T05:15:30;47.60;;;28.23;;
17488;SDS011;8861;52.644;4.734;2022-11-23T05:18:01;45.13;;;27.47;;
17488;SDS011;8861;52.644;4.734;2022-11-23T05:20:28;48.03;;;29.40;;
17488;SDS011;8861;52.644;4.734;2022-11-23T05:22:55;41.07;;;26.40;;
17488;SDS011;8861;52.644;4.734;2022-11-23T05:25:22;39.70;;;26.73;;
17488;SDS011;8861;52.644;4.734;2022-11-23T05:27:49;52.40;;;29.20;;
17488;SDS011;8861;52.644;4.734;2022-11-23T05:30:16;53.50;;;28.40;;
17488;SDS011;8861;52.644;4.734;2022-11-23T05:32:43;54.47;;;29.30;;
17488;SDS011;8861;52.644;4.734;2022-11-23T05:35:12;52.13;;;28.70;;
17488;SDS011;8861;52.644;4.734;2022-11-23T05:37:39;63.60;;;29.27;;
17488;SDS011;8861;52.644;4.734;2022-11-23T05:40:07;58.30;;;28.93;;
17488;SDS011;8861;52.644;4.734;2022-11-23T05:42:35;45.40;;;25.93;;
17488;SDS011;8861;52.644;4.734;2022-11-23T05:45:02;62.87;;;29.23;;
17488;SDS011;8861;52.644;4.734;2022-11-23T05:47:29;53.03;;;26.83;;
17488;SDS011;8861;52.644;4.734;2022-11-23T05:49:56;56.13;;;26.07;;
17488;SDS011;8861;52.644;4.734;2022-11-23T05:52:24;58.60;;;28.00;;
17488;SDS011;8861;52.644;4.734;2022-11-23T05:54:51;46.83;;;25.53;;
17488;SDS011;8861;52.644;4.734;2022-11-23T05:57:18;44.00;;;24.77;;
17488;SDS011;8861;52.644;4.734;2022-11-23T05:59:46;43.53;;;24.37;;
17488;SDS011;8861;52.644;4.734;2022-11-23T06:02:13;45.57;;;26.20;;
17488;SDS011;8861;52.644;4.734;2022-11-23T06:04:40;51.70;;;26.83;;
17488;SDS011;8861;52.644;4.734;2022-11-23T06:07:07;56.77;;;29.10;;
17488;SDS011;8861;52.644;4.734;2022-11-23T06:09:35;44.80;;;26.13;;
17488;SDS011;8861;52.644;4.734;2022-11-23T06:12:03;40.33;;;24.17;;
17488;SDS011;8861;52.644;4.734;2022-11-23T06:14:30;68.80;;;31.13;;
17488;SDS011;8861;52.644;4.734;2022-11-23T06:16:57;51.47;;;28.17;;
17488;SDS011;8861;52.644;4.734;2022-11-23T06:19:24;46.00;;;26.30;;
17488;SDS011;8861;52.644;4.734;2022-11-23T06:21:54;48.73;;;26.53;;
17488;SDS011;8861;52.644;4.734;2022-11-23T06:24:20;47.70;;;26.87;;
17488;SDS011;8861;52.644;4.734;2022-11-23T06:26:49;52.53;;;27.27;;
17488;SDS011;8861;52.644;4.734;2022-11-23T06:29:16;45.67;;;25.87;;
17488;SDS011;8861;52.644;4.734;2022-11-23T06:31:43;41.43;;;25.37;;
17488;SDS011;8861;52.644;4.734;2022-11-23T06:34:10;59.93;;;28.37;;
17488;SDS011;8861;52.644;4.734;2022-11-23T06:36:37;47.13;;;26.30;;
17488;SDS011;8861;52.644;4.734;2022-11-23T06:39:04;64.23;;;28.90;;
17488;SDS011;8861;52.644;4.734;2022-11-23T06:41:31;51.80;;;26.60;;
17488;SDS011;8861;52.644;4.734;2022-11-23T06:43:59;54.63;;;27.43;;
17488;SDS011;8861;52.644;4.734;2022-11-23T06:46:26;46.43;;;25.47;;
17488;SDS011;8861;52.644;4.734;2022-11-23T06:48:53;37.90;;;23.70;;
17488;SDS011;8861;52.644;4.734;2022-11-23T06:51:20;39.67;;;22.97;;
17488;SDS011;8861;52.644;4.734;2022-11-23T06:53:47;57.57;;;27.43;;
17488;SDS011;8861;52.644;4.734;2022-11-23T06:56:13;49.40;;;26.70;;
17488;SDS011;8861;52.644;4.734;2022-11-23T06:58:41;43.20;;;24.73;;
17488;SDS011;8861;52.644;4.734;2022-11-23T07:01:09;41.33;;;23.80;;
17488;SDS011;8861;52.644;4.734;2022-11-23T07:03:36;36.10;;;22.10;;
17488;SDS011;8861;52.644;4.734;2022-11-23T07:06:03;39.53;;;23.07;;
17488;SDS011;8861;52.644;4.734;2022-11-23T07:08:31;43.67;;;23.00;;
17488;SDS011;8861;52.644;4.734;2022-11-23T07:10:59;42.40;;;22.40;;
17488;SDS011;8861;52.644;4.734;2022-11-23T07:13:26;37.53;;;23.07;;
17488;SDS011;8861;52.644;4.734;2022-11-23T07:15:53;37.90;;;22.20;;
17488;SDS011;8861;52.644;4.734;2022-11-23T07:18:24;39.47;;;22.30;;
17488;SDS011;8861;52.644;4.734;2022-11-23T07:20:51;32.37;;;20.87;;
17488;SDS011;8861;52.644;4.734;2022-11-23T07:23:18;34.00;;;21.40;;
17488;SDS011;8861;52.644;4.734;2022-11-23T07:25:45;44.40;;;25.37;;
17488;SDS011;8861;52.644;4.734;2022-11-23T07:28:12;38.67;;;23.77;;
17488;SDS011;8861;52.644;4.734;2022-11-23T07:30:40;40.23;;;23.67;;
17488;SDS011;8861;52.644;4.734;2022-11-23T07:33:07;41.77;;;25.77;;
17488;SDS011;8861;52.644;4.734;2022-11-23T07:35:37;40.00;;;23.33;;
17488;SDS011;8861;52.644;4.734;2022-11-23T07:38:06;40.57;;;24.43;;
17488;SDS011;8861;52.644;4.734;2022-11-23T07:40:33;43.13;;;24.57;;
17488;SDS011;8861;52.644;4.734;2022-11-23T07:43:02;36.53;;;23.40;;
17488;SDS011;8861;52.644;4.734;2022-11-23T07:45:30;38.53;;;22.33;;
17488;SDS011;8861;52.644;4.734;2022-11-23T07:47:57;50.97;;;27.00;;
17488;SDS011;8861;52.644;4.734;2022-11-23T07:50:25;43.17;;;23.77;;
17488;SDS011;8861;52.644;4.734;2022-11-23T07:52:54;39.63;;;22.57;;
17488;SDS011;8861;52.644;4.734;2022-11-23T07:55:21;43.30;;;24.50;;
17488;SDS011;8861;52.644;4.734;2022-11-23T07:57:50;39.33;;;23.60;;
17488;SDS011;8861;52.644;4.734;2022-11-23T08:00:18;39.10;;;22.87;;
17488;SDS011;8861;52.644;4.734;2022-11-23T08:02:45;42.70;;;23.30;;
17488;SDS011;8861;52.644;4.734;2022-11-23T08:05:13;45.10;;;24.40;;
17488;SDS011;8861;52.644;4.734;2022-11-23T08:07:39;40.80;;;23.33;;
17488;SDS011;8861;52.644;4.734;2022-11-23T08:10:08;42.20;;;22.53;;
17488;SDS011;8861;52.644;4.734;2022-11-23T08:12:35;36.63;;;22.13;;
17488;SDS011;8861;52.644;4.734;2022-11-23T08:15:02;38.57;;;22.27;;
17488;SDS011;8861;52.644;4.734;2022-11-23T08:17:30;51.60;;;25.93;;
17488;SDS011;8861;52.644;4.734;2022-11-23T08:19:57;41.03;;;22.90;;
17488;SDS011;8861;52.644;4.734;2022-11-23T08:22:24;37.40;;;21.23;;
17488;SDS011;8861;52.644;4.734;2022-11-23T08:24:51;41.67;;;20.87;;
17488;SDS011;8861;52.644;4.734;2022-11-23T08:27:20;35.03;;;18.37;;
17488;SDS011;8861;52.644;4.734;2022-11-23T08:29:46;43.67;;;16.00;;
17488;SDS011;8861;52.644;4.734;2022-11-23T08:32:13;28.03;;;13.37;;
17488;SDS011;8861;52.644;4.734;2022-11-23T08:34:41;32.13;;;11.67;;
17488;SDS011;8861;52.644;4.734;2022-11-23T08:37:08;28.73;;;9.70;;
17488;SDS011;8861;52.644;4.734;2022-11-23T08:39:35;26.80;;;9.83;;
17488;SDS011;8861;52.644;4.734;2022-11-23T08:42:02;23.40;;;7.70;;
17488;SDS011;8861;52.644;4.734;2022-11-23T08:44:31;21.40;;;8.10;;
17488;SDS011;8861;52.644;4.734;2022-11-23T08:46:57;18.47;;;7.03;;
17488;SDS011;8861;52.644;4.734;2022-11-23T08:49:25;20.17;;;7.67;;
17488;SDS011;8861;52.644;4.734;2022-11-23T08:51:52;16.73;;;6.73;;
17488;SDS011;8861;52.644;4.734;2022-11-23T08:54:19;18.53;;;6.57;;
17488;SDS011;8861;52.644;4.734;2022-11-23T08:56:48;19.97;;;7.47;;
17488;SDS011;8861;52.644;4.734;2022-11-23T08:59:15;25.00;;;7.70;;
17488;SDS011;8861;52.644;4.734;2022-11-23T09:01:44;16.40;;;6.30;;
17488;SDS011;8861;52.644;4.734;2022-11-23T09:04:11;18.30;;;6.27;;
17488;SDS011;8861;52.644;4.734;2022-11-23T09:06:38;16.87;;;6.60;;
17488;SDS011;8861;52.644;4.734;2022-11-23T09:09:05;25.17;;;7.50;;
17488;SDS011;8861;52.644;4.734;2022-11-23T09:11:31;21.53;;;7.40;;
17488;SDS011;8861;52.644;4.734;2022-11-23T09:13:58;19.13;;;7.60;;
17488;SDS011;8861;52.644;4.734;2022-11-23T09:16:25;29.73;;;8.53;;
17488;SDS011;8861;52.644;4.734;2022-11-23T09:18:55;19.07;;;7.43;;
17488;SDS011;8861;52.644;4.734;2022-11-23T09:21:22;20.40;;;8.50;;
17488;SDS011;8861;52.644;4.734;2022-11-23T09:23:53;28.60;;;8.50;;
17488;SDS011;8861;52.644;4.734;2022-11-23T09:26:21;26.43;;;9.17;;
17488;SDS011;8861;52.644;4.734;2022-11-23T09:28:48;21.57;;;7.63;;
17488;SDS011;8861;52.644;4.734;2022-11-23T09:31:15;22.60;;;7.90;;
17488;SDS011;8861;52.644;4.734;2022-11-23T09:33:42;25.23;;;8.10;;
17488;SDS011;8861;52.644;4.734;2022-11-23T09:36:10;22.80;;;8.10;;
17488;SDS011;8861;52.644;4.734;2022-11-23T09:38:37;25.50;;;7.80;;
17488;SDS011;8861;52.644;4.734;2022-11-23T09:41:07;21.37;;;7.20;;
17488;SDS011;8861;52.644;4.734;2022-11-23T09:43:46;19.80;;;6.37;;
17488;SDS011;8861;52.644;4.734;2022-11-23T09:46:20;23.57;;;6.77;;
17488;SDS011;8861;52.644;4.734;2022-11-23T09:49:04;18.40;;;6.83;;
17488;SDS011;8861;52.644;4.734;2022-11-23T09:51:38;25.77;;;7.43;;
17488;SDS011;8861;52.644;4.734;2022-11-23T09:54:09;20.40;;;6.60;;
17488;SDS011;8861;52.644;4.734;2022-11-23T09:56:47;19.13;;;6.37;;
17488;SDS011;8861;52.644;4.734;2022-11-23T09:59:18;23.07;;;6.40;;
17488;SDS011;8861;52.644;4.734;2022-11-23T10:01:53;26.43;;;7.00;;
17488;SDS011;8861;52.644;4.734;2022-11-23T10:04:20;17.37;;;6.03;;
17488;SDS011;8861;52.644;4.734;2022-11-23T10:06:50;19.63;;;6.23;;
17488;SDS011;8861;52.644;4.734;2022-11-23T10:09:22;26.27;;;7.23;;
17488;SDS011;8861;52.644;4.734;2022-11-23T10:11:59;20.73;;;7.27;;
17488;SDS011;8861;52.644;4.734;2022-11-23T10:17:29;24.00;;;6.73;;
17488;SDS011;8861;52.644;4.734;2022-11-23T10:20:18;19.97;;;6.23;;
17488;SDS011;8861;52.644;4.734;2022-11-23T10:22:58;19.73;;;5.87;;
17488;SDS011;8861;52.644;4.734;2022-11-23T10:25:26;25.60;;;6.17;;
17488;SDS011;8861;52.644;4.734;2022-11-23T10:27:59;19.73;;;6.40;;
17488;SDS011;8861;52.644;4.734;2022-11-23T10:30:32;14.63;;;5.30;;
17488;SDS011;8861;52.644;4.734;2022-11-23T10:32:59;23.33;;;6.20;;
17488;SDS011;8861;52.644;4.734;2022-11-23T10:35:31;25.60;;;5.93;;
17488;SDS011;8861;52.644;4.734;2022-11-23T10:38:09;23.83;;;5.77;;
17488;SDS011;8861;52.644;4.734;2022-11-23T10:40:38;21.80;;;6.77;;
17488;SDS011;8861;52.644;4.734;2022-11-23T10:43:13;17.93;;;6.40;;
17488;SDS011;8861;52.644;4.734;2022-11-23T10:45:42;18.03;;;5.00;;
17488;SDS011;8861;52.644;4.734;2022-11-23T10:48:08;16.50;;;5.57;;
17488;SDS011;8861;52.644;4.734;2022-11-23T10:50:36;18.43;;;5.20;;
17488;SDS011;8861;52.644;4.734;2022-11-23T10:53:16;24.10;;;5.67;;
17488;SDS011;8861;52.644;4.734;2022-11-23T10:55:49;20.50;;;5.73;;
17488;SDS011;8861;52.644;4.734;2022-11-23T10:58:25;24.57;;;5.97;;
17488;SDS011;8861;52.644;4.734;2022-11-23T11:00:57;18.57;;;4.77;;
17488;SDS011;8861;52.644;4.734;2022-11-23T11:03:25;20.33;;;4.90;;
17488;SDS011;8861;52.644;4.734;2022-11-23T11:05:57;17.03;;;5.20;;
17488;SDS011;8861;52.644;4.734;2022-11-23T11:08:27;24.30;;;5.47;;
17488;SDS011;8861;52.644;4.734;2022-11-23T11:10:56;22.37;;;5.90;;
17488;SDS011;8861;52.644;4.734;2022-11-23T11:13:25;21.27;;;5.10;;
17488;SDS011;8861;52.644;4.734;2022-11-23T11:15:55;16.87;;;5.10;;
17488;SDS011;8861;52.644;4.734;2022-11-23T11:18:25;17.07;;;4.10;;
17488;SDS011;8861;52.644;4.734;2022-11-23T11:20:57;22.30;;;5.10;;
17488;SDS011;8861;52.644;4.734;2022-11-23T11:23:28;17.67;;;4.63;;
17488;SDS011;8861;52.644;4.734;2022-11-23T11:26:03;18.17;;;5.37;;
17488;SDS011;8861;52.644;4.734;2022-11-23T11:28:34;15.50;;;4.37;;
17488;SDS011;8861;52.644;4.734;2022-11-23T11:31:09;15.90;;;4.30;;
17488;SDS011;8861;52.644;4.734;2022-11-23T11:33:55;21.40;;;5.90;;
17488;SDS011;8861;52.644;4.734;2022-11-23T11:36:31;21.80;;;5.53;;
17488;SDS011;8861;52.644;4.734;2022-11-23T11:39:09;17.50;;;5.10;;
17488;SDS011;8861;52.644;4.734;2022-11-23T11:41:40;21.10;;;6.57;;
17488;SDS011;8861;52.644;4.734;2022-11-23T11:44:12;18.80;;;6.30;;
17488;SDS011;8861;52.644;4.734;2022-11-23T11:46:43;18.57;;;6.23;;
17488;SDS011;8861;52.644;4.734;2022-11-23T11:49:13;18.97;;;5.73;;
17488;SDS011;8861;52.644;4.734;2022-11-23T11:51:45;18.13;;;7.07;;
17488;SDS011;8861;52.644;4.734;2022-11-23T11:54:19;16.57;;;7.30;;
17488;SDS011;8861;52.644;4.734;2022-11-23T11:56:50;17.03;;;7.63;;
17488;SDS011;8861;52.644;4.734;2022-11-23T11:59:21;19.30;;;7.67;;
17488;SDS011;8861;52.644;4.734;2022-11-23T12:01:54;21.17;;;7.70;;
17488;SDS011;8861;52.644;4.734;2022-11-23T12:04:26;18.93;;;8.40;;
17488;SDS011;8861;52.644;4.734;2022-11-23T12:07:03;22.50;;;10.03;;
17488;SDS011;8861;52.644;4.734;2022-11-23T12:09:39;24.67;;;9.07;;
17488;SDS011;8861;52.644;4.734;2022-11-23T12:12:11;21.23;;;8.70;;
17488;SDS011;8861;52.644;4.734;2022-11-23T12:14:41;21.53;;;8.60;;
17488;SDS011;8861;52.644;4.734;2022-11-23T12:17:09;22.40;;;8.77;;
17488;SDS011;8861;52.644;4.734;2022-11-23T12:19:58;15.00;;;7.77;;
17488;SDS011;8861;52.644;4.734;2022-11-23T12:22:35;22.10;;;10.00;;
17488;SDS011;8861;52.644;4.734;2022-11-23T12:25:14;21.47;;;9.63;;
17488;SDS011;8861;52.644;4.734;2022-11-23T12:27:48;22.83;;;10.87;;
17488;SDS011;8861;52.644;4.734;2022-11-23T12:30:25;20.23;;;9.60;;
17488;SDS011;8861;52.644;4.734;2022-11-23T12:33:14;20.20;;;9.50;;
17488;SDS011;8861;52.644;4.734;2022-11-23T12:39:04;20.83;;;10.20;;
17488;SDS011;8861;52.644;4.734;2022-11-23T12:41:40;21.70;;;9.00;;
17488;SDS011;8861;52.644;4.734;2022-11-23T12:44:33;22.57;;;9.47;;
17488;SDS011;8861;52.644;4.734;2022-11-23T12:47:27;18.33;;;8.00;;
17488;SDS011;8861;52.644;4.734;2022-11-23T12:50:04;17.93;;;7.93;;
17488;SDS011;8861;52.644;4.734;2022-11-23T12:52:54;18.47;;;7.60;;
17488;SDS011;8861;52.644;4.734;2022-11-23T12:55:28;18.53;;;7.90;;
17488;SDS011;8861;52.644;4.734;2022-11-23T12:58:08;15.70;;;7.17;;
17488;SDS011;8861;52.644;4.734;2022-11-23T13:00:42;18.40;;;7.47;;
17488;SDS011;8861;52.644;4.734;2022-11-23T13:03:22;15.37;;;6.97;;
17488;SDS011;8861;52.644;4.734;2022-11-23T13:06:17;13.03;;;6.20;;
17488;SDS011;8861;52.644;4.734;2022-11-23T13:09:03;17.40;;;6.70;;
17488;SDS011;8861;52.644;4.734;2022-11-23T13:11:55;14.33;;;5.70;;
17488;SDS011;8861;52.644;4.734;2022-11-23T13:14:37;14.93;;;5.87;;
17488;SDS011;8861;52.644;4.734;2022-11-23T13:17:15;14.60;;;5.50;;
17488;SDS011;8861;52.644;4.734;2022-11-23T13:20:05;16.53;;;5.37;;
17488;SDS011;8861;52.644;4.734;2022-11-23T13:22:51;14.97;;;5.33;;
17488;SDS011;8861;52.644;4.734;2022-11-23T13:25:22;13.17;;;5.17;;
17488;SDS011;8861;52.644;4.734;2022-11-23T13:27:54;17.63;;;5.70;;
17488;SDS011;8861;52.644;4.734;2022-11-23T13:30:30;13.60;;;4.73;;
17488;SDS011;8861;52.644;4.734;2022-11-23T13:33:00;17.70;;;5.20;;
17488;SDS011;8861;52.644;4.734;2022-11-23T13:38:36;10.47;;;4.07;;
17488;SDS011;8861;52.644;4.734;2022-11-23T13:44:21;15.67;;;4.33;;
17488;SDS011;8861;52.644;4.734;2022-11-23T13:47:05;11.80;;;3.63;;
17488;SDS011;8861;52.644;4.734;2022-11-23T13:49:43;13.87;;;3.60;;
17488;SDS011;8861;52.644;4.734;2022-11-23T13:52:24;13.77;;;4.00;;
17488;SDS011;8861;52.644;4.734;2022-11-23T13:54:58;8.83;;;3.53;;
17488;SDS011;8861;52.644;4.734;2022-11-23T13:57:28;10.43;;;3.47;;
17488;SDS011;8861;52.644;4.734;2022-11-23T14:05:59;13.33;;;3.63;;
17488;SDS011;8861;52.644;4.734;2022-11-23T14:08:27;10.70;;;3.83;;
17488;SDS011;8861;52.644;4.734;2022-11-23T14:10:55;10.03;;;3.63;;
17488;SDS011;8861;52.644;4.734;2022-11-23T14:13:24;12.57;;;3.73;;
17488;SDS011;8861;52.644;4.734;2022-11-23T14:15:56;15.07;;;4.07;;
17488;SDS011;8861;52.644;4.734;2022-11-23T14:18:33;11.50;;;3.90;;
17488;SDS011;8861;52.644;4.734;2022-11-23T14:21:18;8.43;;;3.50;;
17488;SDS011;8861;52.644;4.734;2022-11-23T14:26:59;12.40;;;4.57;;
17488;SDS011;8861;52.644;4.734;2022-11-23T14:29:41;11.67;;;4.40;;
17488;SDS011;8861;52.644;4.734;2022-11-23T14:32:25;10.43;;;4.10;;
17488;SDS011;8861;52.644;4.734;2022-11-23T14:35:07;9.50;;;4.70;;
17488;SDS011;8861;52.644;4.734;2022-11-23T14:37:46;9.73;;;4.83;;
17488;SDS011;8861;52.644;4.734;2022-11-23T14:40:26;13.87;;;5.50;;
17488;SDS011;8861;52.644;4.734;2022-11-23T14:42:56;9.53;;;4.70;;
17488;SDS011;8861;52.644;4.734;2022-11-23T14:45:28;8.77;;;4.73;;
17488;SDS011;8861;52.644;4.734;2022-11-23T14:47:56;13.73;;;4.83;;
17488;SDS011;8861;52.644;4.734;2022-11-23T14:50:47;11.23;;;4.70;;
17488;SDS011;8861;52.644;4.734;2022-11-23T14:53:21;11.43;;;4.80;;
17488;SDS011;8861;52.644;4.734;2022-11-23T14:55:50;8.20;;;4.23;;
17488;SDS011;8861;52.644;4.734;2022-11-23T14:58:18;12.07;;;4.60;;
17488;SDS011;8861;52.644;4.734;2022-11-23T15:00:47;8.93;;;4.20;;
17488;SDS011;8861;52.644;4.734;2022-11-23T15:03:16;9.30;;;4.10;;
17488;SDS011;8861;52.644;4.734;2022-11-23T15:05:45;12.23;;;6.30;;
17488;SDS011;8861;52.644;4.734;2022-11-23T15:08:15;9.13;;;4.50;;
17488;SDS011;8861;52.644;4.734;2022-11-23T15:10:48;10.87;;;5.00;;
17488;SDS011;8861;52.644;4.734;2022-11-23T15:13:24;6.40;;;4.10;;
17488;SDS011;8861;52.644;4.734;2022-11-23T15:15:53;9.50;;;5.10;;
17488;SDS011;8861;52.644;4.734;2022-11-23T15:18:28;10.37;;;5.23;;